TEJ055 SACO-SCEL
Flight info
| Callsign | TEJ055 |
|---|---|
| Flight time | 1h 6m |
| Altitude | 40000 |
| Route | ALDEX1C ALDEX UZ105 UMKAL UMKAL7C |
| Aircraft | A35K/H-SDE2E3GHIJ3J4J5LM1ORWXY/LB1D1 |
Departure
| Time | 2026-05-04 00:03 |
|---|---|
| Airport | Ingeniero Aeronáutico Ambrosio L.V. Taravella International Airport (SACO) |
Arrival
| Time | 2026-05-04 01:09 |
|---|---|
| Airport | Comodoro Arturo Merino Benítez International Airport (SCEL) |
| Time | Latitude | Longitude | Altitude | Speed | Heading |
|---|---|---|---|---|---|
| 2026-05-03 23:42 | -31.31653 | -64.21132 | 1565 ft | 0 kts | 269° |
| 2026-05-03 23:51 | -31.31653 | -64.21122 | 1565 ft | 3 kts | 265° |
| 2026-05-03 23:51 | -31.31650 | -64.21099 | 1565 ft | 3 kts | 240° |
| 2026-05-03 23:51 | -31.31638 | -64.21082 | 1565 ft | 3 kts | 206° |
| 2026-05-03 23:51 | -31.31627 | -64.21077 | 1565 ft | 0 kts | 185° |
| 2026-05-03 23:53 | -31.31632 | -64.21077 | 1565 ft | 2 kts | 185° |
| 2026-05-03 23:53 | -31.31662 | -64.21077 | 1564 ft | 5 kts | 187° |
| 2026-05-03 23:53 | -31.31708 | -64.21089 | 1563 ft | 9 kts | 184° |
| 2026-05-03 23:53 | -31.31773 | -64.21054 | 1561 ft | 13 kts | 147° |
| 2026-05-03 23:54 | -31.31869 | -64.21027 | 1559 ft | 16 kts | 179° |
| 2026-05-03 23:54 | -31.31998 | -64.21026 | 1556 ft | 21 kts | 180° |
| 2026-05-03 23:54 | -31.32155 | -64.21023 | 1551 ft | 24 kts | 179° |
| 2026-05-03 23:54 | -31.32320 | -64.21020 | 1539 ft | 13 kts | 179° |
| 2026-05-03 23:55 | -31.32372 | -64.21019 | 1538 ft | 9 kts | 177° |
| 2026-05-03 23:55 | -31.32396 | -64.21012 | 1535 ft | 0 kts | 157° |
| 2026-05-03 23:57 | -31.32404 | -64.21006 | 1541 ft | 3 kts | 149° |
| 2026-05-03 23:58 | -31.32444 | -64.20932 | 1535 ft | 18 kts | 105° |
| 2026-05-03 23:58 | -31.32440 | -64.20828 | 1536 ft | 1 kts | 70° |
| 2026-05-03 23:58 | -31.32423 | -64.20810 | 1535 ft | 5 kts | 23° |
| 2026-05-03 23:58 | -31.32411 | -64.20810 | 1533 ft | 0 kts | 359° |
| 2026-05-04 00:02 | -31.32410 | -64.20810 | 1544 ft | 0 kts | 358° |
| 2026-05-04 00:02 | -31.32163 | -64.20815 | 1549 ft | 73 kts | 359° |
| 2026-05-04 00:02 | -31.31428 | -64.20827 | 1566 ft | 136 kts | 359° |
| 2026-05-04 00:03 | -31.30359 | -64.20841 | 1896 ft | 161 kts | 2° |
| 2026-05-04 00:03 | -31.29255 | -64.20854 | 2775 ft | 155 kts | 360° |
| 2026-05-04 00:03 | -31.28105 | -64.20873 | 3314 ft | 178 kts | 359° |
| 2026-05-04 00:03 | -31.26752 | -64.20897 | 3559 ft | 211 kts | 359° |
| 2026-05-04 00:04 | -31.25182 | -64.20927 | 3905 ft | 238 kts | 358° |
| 2026-05-04 00:04 | -31.23496 | -64.20956 | 4604 ft | 248 kts | 357° |
| 2026-05-04 00:04 | -31.21748 | -64.20984 | 5461 ft | 253 kts | 357° |
| 2026-05-04 00:04 | -31.19970 | -64.21168 | 6293 ft | 259 kts | 345° |
| 2026-05-04 00:05 | -31.18351 | -64.22118 | 7074 ft | 264 kts | 324° |
| 2026-05-04 00:05 | -31.16895 | -64.23430 | 7864 ft | 271 kts | 320° |
| 2026-05-04 00:05 | -31.15412 | -64.24835 | 8695 ft | 278 kts | 319° |
| 2026-05-04 00:05 | -31.13894 | -64.26282 | 9531 ft | 284 kts | 317° |
| 2026-05-04 00:06 | -31.12585 | -64.28020 | 10267 ft | 288 kts | 299° |
| 2026-05-04 00:06 | -31.11919 | -64.30283 | 10633 ft | 306 kts | 275° |
| 2026-05-04 00:06 | -31.11840 | -64.32848 | 10932 ft | 326 kts | 269° |
| 2026-05-04 00:06 | -31.11873 | -64.35541 | 11212 ft | 346 kts | 268° |
| 2026-05-04 00:07 | -31.11900 | -64.38402 | 11664 ft | 356 kts | 268° |
| 2026-05-04 00:07 | -31.11913 | -64.41313 | 12325 ft | 360 kts | 268° |
| 2026-05-04 00:07 | -31.11915 | -64.44247 | 13044 ft | 363 kts | 268° |
| 2026-05-04 00:07 | -31.11912 | -64.47199 | 13792 ft | 365 kts | 268° |
| 2026-05-04 00:08 | -31.11910 | -64.50170 | 14448 ft | 368 kts | 267° |
| 2026-05-04 00:08 | -31.12149 | -64.53137 | 15141 ft | 367 kts | 258° |
| 2026-05-04 00:08 | -31.12694 | -64.56051 | 15837 ft | 369 kts | 255° |
| 2026-05-04 00:08 | -31.13305 | -64.58970 | 16534 ft | 370 kts | 255° |
| 2026-05-04 00:09 | -31.13922 | -64.61902 | 17263 ft | 372 kts | 255° |
| 2026-05-04 00:09 | -31.14536 | -64.64842 | 17957 ft | 374 kts | 256° |
| 2026-05-04 00:09 | -31.15149 | -64.67805 | 18588 ft | 377 kts | 256° |
| 2026-05-04 00:09 | -31.15767 | -64.70789 | 19203 ft | 379 kts | 256° |
| 2026-05-04 00:10 | -31.16389 | -64.73793 | 19838 ft | 382 kts | 256° |
| 2026-05-04 00:10 | -31.17011 | -64.76824 | 20512 ft | 385 kts | 256° |
| 2026-05-04 00:10 | -31.17635 | -64.79872 | 21222 ft | 386 kts | 256° |
| 2026-05-04 00:10 | -31.18256 | -64.82891 | 21888 ft | 389 kts | 255° |
| 2026-05-04 00:11 | -31.19034 | -64.85933 | 22583 ft | 392 kts | 249° |
| 2026-05-04 00:11 | -31.20204 | -64.88824 | 23268 ft | 396 kts | 240° |
| 2026-05-04 00:11 | -31.21809 | -64.91462 | 23919 ft | 401 kts | 231° |
| 2026-05-04 00:11 | -31.23821 | -64.93752 | 24539 ft | 407 kts | 222° |
| 2026-05-04 00:12 | -31.26191 | -64.95618 | 25199 ft | 414 kts | 213° |
| 2026-05-04 00:12 | -31.28721 | -64.97189 | 25852 ft | 418 kts | 211° |
| 2026-05-04 00:12 | -31.31330 | -64.98738 | 26466 ft | 421 kts | 211° |
| 2026-05-04 00:12 | -31.33957 | -65.00298 | 27081 ft | 424 kts | 211° |
| 2026-05-04 00:13 | -31.36601 | -65.01877 | 27677 ft | 428 kts | 211° |
| 2026-05-04 00:13 | -31.39264 | -65.03473 | 28281 ft | 431 kts | 212° |
| 2026-05-04 00:13 | -31.41920 | -65.05070 | 28862 ft | 434 kts | 212° |
| 2026-05-04 00:13 | -31.44618 | -65.06695 | 29436 ft | 438 kts | 212° |
| 2026-05-04 00:14 | -31.47342 | -65.08337 | 29996 ft | 441 kts | 212° |
| 2026-05-04 00:14 | -31.50086 | -65.09992 | 30451 ft | 444 kts | 212° |
| 2026-05-04 00:14 | -31.52855 | -65.11664 | 30891 ft | 448 kts | 212° |
| 2026-05-04 00:14 | -31.55602 | -65.13324 | 31311 ft | 451 kts | 212° |
| 2026-05-04 00:15 | -31.58415 | -65.15027 | 31724 ft | 453 kts | 212° |
| 2026-05-04 00:15 | -31.61127 | -65.16895 | 32207 ft | 449 kts | 218° |
| 2026-05-04 00:15 | -31.63573 | -65.19135 | 32848 ft | 442 kts | 226° |
| 2026-05-04 00:15 | -31.65686 | -65.21718 | 33474 ft | 435 kts | 233° |
| 2026-05-04 00:16 | -31.67413 | -65.24553 | 34039 ft | 430 kts | 241° |
| 2026-05-04 00:16 | -31.68790 | -65.27653 | 34577 ft | 426 kts | 247° |
| 2026-05-04 00:16 | -31.69962 | -65.30837 | 35069 ft | 423 kts | 249° |
| 2026-05-04 00:16 | -31.71072 | -65.34037 | 35458 ft | 423 kts | 249° |
| 2026-05-04 00:17 | -31.72156 | -65.37251 | 35910 ft | 421 kts | 250° |
| 2026-05-04 00:17 | -31.73214 | -65.40410 | 36389 ft | 419 kts | 250° |
| 2026-05-04 00:17 | -31.74284 | -65.43596 | 36831 ft | 417 kts | 250° |
| 2026-05-04 00:17 | -31.75348 | -65.46748 | 37251 ft | 415 kts | 250° |
| 2026-05-04 00:18 | -31.76417 | -65.49898 | 37703 ft | 412 kts | 250° |
| 2026-05-04 00:18 | -31.77480 | -65.53020 | 38146 ft | 410 kts | 250° |
| 2026-05-04 00:18 | -31.78529 | -65.56096 | 38541 ft | 408 kts | 250° |
| 2026-05-04 00:18 | -31.79584 | -65.59192 | 38876 ft | 406 kts | 250° |
| 2026-05-04 00:19 | -31.80635 | -65.62276 | 39126 ft | 406 kts | 250° |
| 2026-05-04 00:19 | -31.81690 | -65.65378 | 39308 ft | 407 kts | 250° |
| 2026-05-04 00:19 | -31.82740 | -65.68469 | 39540 ft | 407 kts | 250° |
| 2026-05-04 00:19 | -31.83776 | -65.71521 | 39788 ft | 406 kts | 250° |
| 2026-05-04 00:20 | -31.84825 | -65.74613 | 39936 ft | 407 kts | 250° |
| 2026-05-04 00:20 | -31.85873 | -65.77705 | 39946 ft | 406 kts | 250° |
| 2026-05-04 00:20 | -31.87961 | -65.83879 | 39943 ft | 406 kts | 250° |
| 2026-05-04 00:21 | -31.90037 | -65.90026 | 39946 ft | 406 kts | 250° |
| 2026-05-04 00:21 | -31.92124 | -65.96218 | 39941 ft | 406 kts | 250° |
| 2026-05-04 00:22 | -31.94212 | -66.02417 | 39948 ft | 406 kts | 250° |
| 2026-05-04 00:22 | -31.96272 | -66.08563 | 39945 ft | 406 kts | 250° |
| 2026-05-04 00:23 | -31.98342 | -66.14764 | 39943 ft | 406 kts | 250° |
| 2026-05-04 00:23 | -32.00411 | -66.20969 | 39944 ft | 406 kts | 250° |
| 2026-05-04 00:24 | -32.02465 | -66.27135 | 39942 ft | 406 kts | 250° |
| 2026-05-04 00:24 | -32.04532 | -66.33353 | 39939 ft | 406 kts | 250° |
| 2026-05-04 00:25 | -32.06577 | -66.39515 | 39934 ft | 406 kts | 250° |
| 2026-05-04 00:25 | -32.08637 | -66.45734 | 39935 ft | 406 kts | 250° |
| 2026-05-04 00:26 | -32.10583 | -66.51987 | 39932 ft | 405 kts | 254° |
| 2026-05-04 00:26 | -32.12162 | -66.58325 | 39931 ft | 405 kts | 255° |
| 2026-05-04 00:27 | -32.13688 | -66.64735 | 39927 ft | 405 kts | 255° |
| 2026-05-04 00:27 | -32.15203 | -66.71157 | 39927 ft | 405 kts | 255° |
| 2026-05-04 00:28 | -32.16709 | -66.77529 | 39926 ft | 405 kts | 255° |
| 2026-05-04 00:28 | -32.18222 | -66.83934 | 39926 ft | 405 kts | 255° |
| 2026-05-04 00:29 | -32.19727 | -66.90312 | 39925 ft | 405 kts | 255° |
| 2026-05-04 00:29 | -32.21235 | -66.96722 | 39919 ft | 404 kts | 255° |
| 2026-05-04 00:30 | -32.22731 | -67.03097 | 39915 ft | 404 kts | 255° |
| 2026-05-04 00:30 | -32.24234 | -67.09517 | 39911 ft | 404 kts | 255° |
| 2026-05-04 00:31 | -32.25722 | -67.15890 | 39909 ft | 404 kts | 255° |
| 2026-05-04 00:31 | -32.27219 | -67.22314 | 39908 ft | 404 kts | 255° |
| 2026-05-04 00:32 | -32.28703 | -67.28701 | 39900 ft | 405 kts | 255° |
| 2026-05-04 00:32 | -32.30197 | -67.35147 | 39897 ft | 405 kts | 255° |
| 2026-05-04 00:33 | -32.32417 | -67.44757 | 39899 ft | 405 kts | 256° |
| 2026-05-04 00:34 | -32.33898 | -67.51188 | 39900 ft | 405 kts | 256° |
| 2026-05-04 00:34 | -32.35377 | -67.57623 | 39899 ft | 406 kts | 256° |
| 2026-05-04 00:35 | -32.36848 | -67.64044 | 39903 ft | 406 kts | 256° |
| 2026-05-04 00:35 | -32.38327 | -67.70516 | 39903 ft | 406 kts | 256° |
| 2026-05-04 00:36 | -32.39802 | -67.76983 | 39897 ft | 406 kts | 256° |
| 2026-05-04 00:36 | -32.41267 | -67.83424 | 39900 ft | 406 kts | 256° |
| 2026-05-04 00:37 | -32.42734 | -67.89894 | 39901 ft | 406 kts | 256° |
| 2026-05-04 00:37 | -32.44189 | -67.96326 | 39901 ft | 406 kts | 256° |
| 2026-05-04 00:38 | -32.45650 | -68.02798 | 39903 ft | 406 kts | 256° |
| 2026-05-04 00:38 | -32.46870 | -68.08219 | 39903 ft | 406 kts | 256° |
| 2026-05-04 00:39 | -32.48318 | -68.14665 | 39900 ft | 406 kts | 256° |
| 2026-05-04 00:39 | -32.49769 | -68.21143 | 39895 ft | 407 kts | 256° |
| 2026-05-04 00:40 | -32.51217 | -68.27627 | 39902 ft | 407 kts | 256° |
| 2026-05-04 00:40 | -32.52654 | -68.34074 | 39903 ft | 407 kts | 256° |
| 2026-05-04 00:41 | -32.54097 | -68.40568 | 39903 ft | 407 kts | 256° |
| 2026-05-04 00:41 | -32.55532 | -68.47045 | 39905 ft | 407 kts | 256° |
| 2026-05-04 00:42 | -32.56968 | -68.53541 | 39910 ft | 407 kts | 256° |
| 2026-05-04 00:42 | -32.58405 | -68.60061 | 39913 ft | 407 kts | 256° |
| 2026-05-04 00:43 | -32.59837 | -68.66574 | 39918 ft | 407 kts | 256° |
| 2026-05-04 00:43 | -32.61256 | -68.73041 | 39920 ft | 407 kts | 256° |
| 2026-05-04 00:44 | -32.62684 | -68.79575 | 39945 ft | 408 kts | 256° |
| 2026-05-04 00:44 | -32.64096 | -68.86045 | 39920 ft | 408 kts | 256° |
| 2026-05-04 00:45 | -32.65519 | -68.92588 | 39920 ft | 410 kts | 256° |
| 2026-05-04 00:45 | -32.66945 | -68.99162 | 39923 ft | 411 kts | 256° |
| 2026-05-04 00:46 | -32.68359 | -69.05698 | 39910 ft | 410 kts | 256° |
| 2026-05-04 00:46 | -32.69783 | -69.12295 | 39908 ft | 413 kts | 256° |
| 2026-05-04 00:47 | -32.71204 | -69.18895 | 39916 ft | 411 kts | 256° |
| 2026-05-04 00:47 | -32.72615 | -69.25473 | 39913 ft | 413 kts | 256° |
| 2026-05-04 00:48 | -32.74034 | -69.32104 | 39947 ft | 413 kts | 256° |
| 2026-05-04 00:48 | -32.75442 | -69.38698 | 39950 ft | 414 kts | 256° |
| 2026-05-04 00:49 | -32.76857 | -69.45345 | 40009 ft | 414 kts | 256° |
| 2026-05-04 00:49 | -32.78261 | -69.51959 | 39733 ft | 403 kts | 256° |
| 2026-05-04 00:49 | -32.78931 | -69.55122 | 39160 ft | 395 kts | 256° |
| 2026-05-04 00:50 | -32.79597 | -69.58242 | 38085 ft | 386 kts | 256° |
| 2026-05-04 00:50 | -32.80251 | -69.61341 | 36703 ft | 388 kts | 256° |
| 2026-05-04 00:50 | -32.80913 | -69.64491 | 35152 ft | 394 kts | 256° |
| 2026-05-04 00:50 | -32.81584 | -69.67683 | 33585 ft | 400 kts | 256° |
| 2026-05-04 00:51 | -32.82265 | -69.70923 | 31760 ft | 406 kts | 256° |
| 2026-05-04 00:51 | -32.82947 | -69.74170 | 29960 ft | 411 kts | 256° |
| 2026-05-04 00:51 | -32.83643 | -69.77496 | 28457 ft | 415 kts | 256° |
| 2026-05-04 00:51 | -32.84345 | -69.80862 | 28039 ft | 420 kts | 256° |
| 2026-05-04 00:52 | -32.85047 | -69.84213 | 27577 ft | 415 kts | 257° |
| 2026-05-04 00:52 | -32.85733 | -69.87486 | 27028 ft | 411 kts | 257° |
| 2026-05-04 00:52 | -32.86421 | -69.90771 | 26375 ft | 406 kts | 257° |
| 2026-05-04 00:52 | -32.87101 | -69.94023 | 25783 ft | 401 kts | 257° |
| 2026-05-04 00:53 | -32.87760 | -69.97248 | 25178 ft | 398 kts | 258° |
| 2026-05-04 00:53 | -32.88134 | -70.00441 | 24636 ft | 393 kts | 266° |
| 2026-05-04 00:53 | -32.88028 | -70.03688 | 24059 ft | 393 kts | 274° |
| 2026-05-04 00:53 | -32.87743 | -70.06931 | 23378 ft | 391 kts | 275° |
| 2026-05-04 00:54 | -32.87437 | -70.10132 | 22761 ft | 386 kts | 275° |
| 2026-05-04 00:54 | -32.87141 | -70.13261 | 22168 ft | 383 kts | 275° |
| 2026-05-04 00:54 | -32.86850 | -70.16401 | 21568 ft | 380 kts | 275° |
| 2026-05-04 00:54 | -32.86557 | -70.19515 | 20975 ft | 377 kts | 275° |
| 2026-05-04 00:55 | -32.86267 | -70.22599 | 20382 ft | 375 kts | 274° |
| 2026-05-04 00:55 | -32.85982 | -70.25689 | 19766 ft | 375 kts | 275° |
| 2026-05-04 00:55 | -32.85694 | -70.28773 | 19153 ft | 375 kts | 275° |
| 2026-05-04 00:55 | -32.85406 | -70.31862 | 18602 ft | 379 kts | 276° |
| 2026-05-04 00:56 | -32.85110 | -70.35030 | 18096 ft | 389 kts | 276° |
| 2026-05-04 00:56 | -32.84810 | -70.38245 | 17367 ft | 392 kts | 276° |
| 2026-05-04 00:56 | -32.84507 | -70.41463 | 16813 ft | 391 kts | 277° |
| 2026-05-04 00:56 | -32.84206 | -70.44670 | 16259 ft | 389 kts | 277° |
| 2026-05-04 00:57 | -32.83909 | -70.47833 | 15712 ft | 389 kts | 277° |
| 2026-05-04 00:57 | -32.83608 | -70.51023 | 15180 ft | 388 kts | 278° |
| 2026-05-04 00:57 | -32.83312 | -70.54210 | 14639 ft | 386 kts | 278° |
| 2026-05-04 00:57 | -32.83012 | -70.57377 | 14125 ft | 383 kts | 278° |
| 2026-05-04 00:58 | -32.82716 | -70.60487 | 13796 ft | 372 kts | 278° |
| 2026-05-04 00:58 | -32.82430 | -70.63484 | 13554 ft | 357 kts | 278° |
| 2026-05-04 00:58 | -32.82160 | -70.66361 | 13328 ft | 344 kts | 278° |
| 2026-05-04 00:58 | -32.82267 | -70.69152 | 13075 ft | 334 kts | 258° |
| 2026-05-04 00:59 | -32.83266 | -70.71542 | 12715 ft | 319 kts | 234° |
| 2026-05-04 00:59 | -32.84790 | -70.73403 | 12091 ft | 311 kts | 226° |
| 2026-05-04 00:59 | -32.86388 | -70.75118 | 11361 ft | 307 kts | 225° |
| 2026-05-04 00:59 | -32.87974 | -70.76817 | 10582 ft | 306 kts | 225° |
| 2026-05-04 01:00 | -32.89511 | -70.78478 | 10021 ft | 297 kts | 225° |
| 2026-05-04 01:00 | -32.91065 | -70.80100 | 9501 ft | 298 kts | 219° |
| 2026-05-04 01:00 | -32.92924 | -70.81203 | 9094 ft | 300 kts | 195° |
| 2026-05-04 01:00 | -32.94956 | -70.81638 | 8694 ft | 301 kts | 188° |
| 2026-05-04 01:01 | -32.97035 | -70.81936 | 8315 ft | 299 kts | 187° |
| 2026-05-04 01:01 | -32.99111 | -70.82225 | 7857 ft | 299 kts | 187° |
| 2026-05-04 01:01 | -33.01188 | -70.82360 | 7425 ft | 297 kts | 179° |
| 2026-05-04 01:01 | -33.03215 | -70.82278 | 6964 ft | 288 kts | 177° |
| 2026-05-04 01:02 | -33.05190 | -70.82163 | 6600 ft | 287 kts | 177° |
| 2026-05-04 01:02 | -33.07180 | -70.82040 | 6151 ft | 283 kts | 177° |
| 2026-05-04 01:02 | -33.09139 | -70.81920 | 5712 ft | 280 kts | 177° |
| 2026-05-04 01:02 | -33.11032 | -70.81807 | 5436 ft | 262 kts | 177° |
| 2026-05-04 01:03 | -33.12786 | -70.81704 | 5228 ft | 243 kts | 177° |
| 2026-05-04 01:03 | -33.14396 | -70.81608 | 5068 ft | 223 kts | 176° |
| 2026-05-04 01:03 | -33.15864 | -70.81501 | 5033 ft | 200 kts | 176° |
| 2026-05-04 01:03 | -33.17184 | -70.81425 | 5014 ft | 180 kts | 177° |
| 2026-05-04 01:04 | -33.18367 | -70.81365 | 5005 ft | 160 kts | 178° |
| 2026-05-04 01:04 | -33.19440 | -70.81314 | 5002 ft | 151 kts | 178° |
| 2026-05-04 01:04 | -33.20481 | -70.81263 | 4859 ft | 151 kts | 178° |
| 2026-05-04 01:04 | -33.21532 | -70.81207 | 4624 ft | 151 kts | 177° |
| 2026-05-04 01:05 | -33.22578 | -70.81151 | 4424 ft | 150 kts | 177° |
| 2026-05-04 01:05 | -33.23621 | -70.81095 | 4217 ft | 149 kts | 178° |
| 2026-05-04 01:05 | -33.24656 | -70.81040 | 3999 ft | 148 kts | 178° |
| 2026-05-04 01:05 | -33.25675 | -70.80986 | 3823 ft | 148 kts | 178° |
| 2026-05-04 01:06 | -33.26702 | -70.80932 | 3627 ft | 147 kts | 178° |
| 2026-05-04 01:06 | -33.27721 | -70.80877 | 3445 ft | 147 kts | 178° |
| 2026-05-04 01:06 | -33.28743 | -70.80823 | 3252 ft | 146 kts | 178° |
| 2026-05-04 01:06 | -33.29756 | -70.80769 | 3052 ft | 145 kts | 178° |
| 2026-05-04 01:07 | -33.30749 | -70.80713 | 2859 ft | 140 kts | 179° |
| 2026-05-04 01:07 | -33.31732 | -70.80660 | 2669 ft | 145 kts | 178° |
| 2026-05-04 01:07 | -33.32734 | -70.80612 | 2465 ft | 143 kts | 178° |
| 2026-05-04 01:07 | -33.33723 | -70.80559 | 2275 ft | 142 kts | 177° |
| 2026-05-04 01:08 | -33.34705 | -70.80507 | 2089 ft | 140 kts | 177° |
| 2026-05-04 01:08 | -33.35682 | -70.80455 | 1897 ft | 140 kts | 176° |
| 2026-05-04 01:08 | -33.36658 | -70.80393 | 1718 ft | 141 kts | 175° |
| 2026-05-04 01:08 | -33.37634 | -70.80350 | 1604 ft | 138 kts | 175° |
| 2026-05-04 01:09 | -33.38503 | -70.80299 | 1579 ft | 101 kts | 177° |
| 2026-05-04 01:09 | -33.38917 | -70.80282 | 1580 ft | 34 kts | 178° |
| 2026-05-04 01:09 | -33.39147 | -70.80266 | 1579 ft | 32 kts | 172° |
| 2026-05-04 01:09 | -33.39355 | -70.80180 | 1576 ft | 32 kts | 148° |
| 2026-05-04 01:10 | -33.39399 | -70.80147 | 1575 ft | 3 kts | 148° |
| 2026-05-04 01:10 | -33.39436 | -70.80119 | 1573 ft | 9 kts | 148° |
| 2026-05-04 01:10 | -33.39502 | -70.80066 | 1572 ft | 13 kts | 150° |
| 2026-05-04 01:10 | -33.39600 | -70.80040 | 1572 ft | 16 kts | 176° |
| 2026-05-04 01:11 | -33.39720 | -70.80033 | 1572 ft | 18 kts | 178° |
| 2026-05-04 01:11 | -33.39856 | -70.80026 | 1572 ft | 21 kts | 176° |
| 2026-05-04 01:11 | -33.40007 | -70.80015 | 1572 ft | 23 kts | 176° |
| 2026-05-04 01:11 | -33.40153 | -70.79975 | 1572 ft | 15 kts | 129° |
| 2026-05-04 01:12 | -33.40163 | -70.79871 | 1571 ft | 14 kts | 88° |
| 2026-05-04 01:12 | -33.40157 | -70.79745 | 1570 ft | 15 kts | 80° |
| 2026-05-04 01:12 | -33.40103 | -70.79700 | 1570 ft | 10 kts | 2° |
| 2026-05-04 01:12 | -33.40080 | -70.79701 | 1570 ft | 0 kts | 358° |